sensor_id;sensor_type;location;lat;lon;timestamp;P1;durP1;ratioP1;P2;durP2;ratioP2
20445;SDS011;10382;49.140;9.234;2023-02-26T00:02:18;5.63;;;2.67;;
20445;SDS011;10382;49.140;9.234;2023-02-26T00:04:46;6.97;;;3.28;;
20445;SDS011;10382;49.140;9.234;2023-02-26T00:07:13;22.58;;;4.28;;
20445;SDS011;10382;49.140;9.234;2023-02-26T00:09:40;3.25;;;2.95;;
20445;SDS011;10382;49.140;9.234;2023-02-26T00:12:08;10.77;;;3.30;;
20445;SDS011;10382;49.140;9.234;2023-02-26T00:14:36;3.78;;;2.80;;
20445;SDS011;10382;49.140;9.234;2023-02-26T00:17:16;5.88;;;3.22;;
20445;SDS011;10382;49.140;9.234;2023-02-26T00:20:09;11.82;;;4.50;;
20445;SDS011;10382;49.140;9.234;2023-02-26T00:22:37;11.05;;;4.05;;
20445;SDS011;10382;49.140;9.234;2023-02-26T00:25:05;7.75;;;4.30;;
20445;SDS011;10382;49.140;9.234;2023-02-26T00:27:32;3.30;;;2.97;;
20445;SDS011;10382;49.140;9.234;2023-02-26T00:29:59;4.43;;;3.97;;
20445;SDS011;10382;49.140;9.234;2023-02-26T00:32:27;8.43;;;4.85;;
20445;SDS011;10382;49.140;9.234;2023-02-26T00:34:54;11.25;;;3.92;;
20445;SDS011;10382;49.140;9.234;2023-02-26T00:37:26;5.88;;;4.50;;
20445;SDS011;10382;49.140;9.234;2023-02-26T00:40:01;11.88;;;3.25;;
20445;SDS011;10382;49.140;9.234;2023-02-26T00:42:33;3.70;;;2.75;;
20445;SDS011;10382;49.140;9.234;2023-02-26T00:45:01;7.65;;;3.50;;
20445;SDS011;10382;49.140;9.234;2023-02-26T00:47:30;6.47;;;4.80;;
20445;SDS011;10382;49.140;9.234;2023-02-26T00:50:04;7.18;;;4.60;;
20445;SDS011;10382;49.140;9.234;2023-02-26T00:52:40;8.77;;;4.28;;
20445;SDS011;10382;49.140;9.234;2023-02-26T00:55:14;7.38;;;5.18;;
20445;SDS011;10382;49.140;9.234;2023-02-26T00:57:41;5.05;;;3.65;;
20445;SDS011;10382;49.140;9.234;2023-02-26T01:00:09;5.63;;;4.35;;
20445;SDS011;10382;49.140;9.234;2023-02-26T01:02:37;8.20;;;4.50;;
20445;SDS011;10382;49.140;9.234;2023-02-26T01:05:05;11.88;;;4.00;;
20445;SDS011;10382;49.140;9.234;2023-02-26T01:07:41;6.70;;;4.28;;
20445;SDS011;10382;49.140;9.234;2023-02-26T01:10:15;4.57;;;3.58;;
20445;SDS011;10382;49.140;9.234;2023-02-26T01:12:43;4.00;;;3.25;;
20445;SDS011;10382;49.140;9.234;2023-02-26T01:15:11;5.18;;;2.70;;
20445;SDS011;10382;49.140;9.234;2023-02-26T01:17:40;7.55;;;4.60;;
20445;SDS011;10382;49.140;9.234;2023-02-26T01:20:13;5.25;;;3.85;;
20445;SDS011;10382;49.140;9.234;2023-02-26T01:22:47;8.50;;;5.10;;
20445;SDS011;10382;49.140;9.234;2023-02-26T01:25:20;6.57;;;4.00;;
20445;SDS011;10382;49.140;9.234;2023-02-26T01:27:50;6.28;;;4.05;;
20445;SDS011;10382;49.140;9.234;2023-02-26T01:30:18;6.00;;;3.78;;
20445;SDS011;10382;49.140;9.234;2023-02-26T01:32:47;5.78;;;3.88;;
20445;SDS011;10382;49.140;9.234;2023-02-26T01:35:22;6.15;;;4.18;;
20445;SDS011;10382;49.140;9.234;2023-02-26T01:38:03;4.63;;;3.50;;
20445;SDS011;10382;49.140;9.234;2023-02-26T01:40:45;4.97;;;3.72;;
20445;SDS011;10382;49.140;9.234;2023-02-26T01:43:43;5.72;;;3.70;;
20445;SDS011;10382;49.140;9.234;2023-02-26T01:46:15;5.20;;;4.20;;
20445;SDS011;10382;49.140;9.234;2023-02-26T01:48:47;6.60;;;5.20;;
20445;SDS011;10382;49.140;9.234;2023-02-26T01:51:16;8.88;;;4.82;;
20445;SDS011;10382;49.140;9.234;2023-02-26T01:53:45;4.65;;;3.70;;
20445;SDS011;10382;49.140;9.234;2023-02-26T01:56:14;6.78;;;4.05;;
20445;SDS011;10382;49.140;9.234;2023-02-26T01:58:43;5.95;;;3.85;;
20445;SDS011;10382;49.140;9.234;2023-02-26T02:01:13;6.38;;;4.45;;
20445;SDS011;10382;49.140;9.234;2023-02-26T02:03:40;6.80;;;4.72;;
20445;SDS011;10382;49.140;9.234;2023-02-26T02:06:08;21.40;;;4.55;;
20445;SDS011;10382;49.140;9.234;2023-02-26T02:08:40;8.52;;;4.38;;
20445;SDS011;10382;49.140;9.234;2023-02-26T02:11:09;2.47;;;2.28;;
20445;SDS011;10382;49.140;9.234;2023-02-26T02:13:40;14.02;;;4.88;;
20445;SDS011;10382;49.140;9.234;2023-02-26T02:16:22;5.78;;;3.58;;
20445;SDS011;10382;49.140;9.234;2023-02-26T02:18:59;7.10;;;4.75;;
20445;SDS011;10382;49.140;9.234;2023-02-26T02:21:39;8.00;;;4.22;;
20445;SDS011;10382;49.140;9.234;2023-02-26T02:24:16;10.18;;;5.28;;
20445;SDS011;10382;49.140;9.234;2023-02-26T02:26:53;4.55;;;3.88;;
20445;SDS011;10382;49.140;9.234;2023-02-26T02:32:28;5.35;;;3.50;;
20445;SDS011;10382;49.140;9.234;2023-02-26T02:35:01;6.78;;;4.43;;
20445;SDS011;10382;49.140;9.234;2023-02-26T02:37:35;7.68;;;5.18;;
20445;SDS011;10382;49.140;9.234;2023-02-26T02:40:07;3.22;;;2.65;;
20445;SDS011;10382;49.140;9.234;2023-02-26T02:42:38;7.20;;;4.05;;
20445;SDS011;10382;49.140;9.234;2023-02-26T02:45:12;4.57;;;3.75;;
20445;SDS011;10382;49.140;9.234;2023-02-26T02:47:46;8.23;;;4.75;;
20445;SDS011;10382;49.140;9.234;2023-02-26T02:50:18;9.95;;;4.75;;
20445;SDS011;10382;49.140;9.234;2023-02-26T02:52:49;5.47;;;4.28;;
20445;SDS011;10382;49.140;9.234;2023-02-26T02:55:21;8.48;;;3.92;;
20445;SDS011;10382;49.140;9.234;2023-02-26T02:57:52;11.15;;;5.28;;
20445;SDS011;10382;49.140;9.234;2023-02-26T03:00:24;6.72;;;4.45;;
20445;SDS011;10382;49.140;9.234;2023-02-26T03:02:56;7.10;;;4.07;;
20445;SDS011;10382;49.140;9.234;2023-02-26T03:05:28;6.60;;;4.25;;
20445;SDS011;10382;49.140;9.234;2023-02-26T03:07:55;7.75;;;3.25;;
20445;SDS011;10382;49.140;9.234;2023-02-26T03:10:25;7.57;;;4.65;;
20445;SDS011;10382;49.140;9.234;2023-02-26T03:12:52;12.43;;;4.85;;
20445;SDS011;10382;49.140;9.234;2023-02-26T03:15:23;6.57;;;5.00;;
20445;SDS011;10382;49.140;9.234;2023-02-26T03:18:00;6.45;;;4.40;;
20445;SDS011;10382;49.140;9.234;2023-02-26T03:20:35;6.70;;;3.38;;
20445;SDS011;10382;49.140;9.234;2023-02-26T03:23:13;6.25;;;4.28;;
20445;SDS011;10382;49.140;9.234;2023-02-26T03:25:46;9.23;;;4.38;;
20445;SDS011;10382;49.140;9.234;2023-02-26T03:28:18;7.05;;;5.00;;
20445;SDS011;10382;49.140;9.234;2023-02-26T03:30:52;12.43;;;3.75;;
20445;SDS011;10382;49.140;9.234;2023-02-26T03:33:26;5.60;;;4.43;;
20445;SDS011;10382;49.140;9.234;2023-02-26T03:36:00;4.05;;;3.65;;
20445;SDS011;10382;49.140;9.234;2023-02-26T03:38:32;7.30;;;4.10;;
20445;SDS011;10382;49.140;9.234;2023-02-26T03:41:05;6.47;;;4.85;;
20445;SDS011;10382;49.140;9.234;2023-02-26T03:43:36;6.10;;;4.05;;
20445;SDS011;10382;49.140;9.234;2023-02-26T03:46:08;3.83;;;2.90;;
20445;SDS011;10382;49.140;9.234;2023-02-26T03:48:39;6.00;;;4.22;;
20445;SDS011;10382;49.140;9.234;2023-02-26T03:51:09;3.38;;;3.17;;
20445;SDS011;10382;49.140;9.234;2023-02-26T03:53:39;4.45;;;3.65;;
20445;SDS011;10382;49.140;9.234;2023-02-26T03:56:10;4.13;;;3.72;;
20445;SDS011;10382;49.140;9.234;2023-02-26T03:58:43;8.02;;;5.50;;
20445;SDS011;10382;49.140;9.234;2023-02-26T04:01:11;7.63;;;4.90;;
20445;SDS011;10382;49.140;9.234;2023-02-26T04:03:44;5.20;;;3.00;;
20445;SDS011;10382;49.140;9.234;2023-02-26T04:06:18;12.75;;;4.60;;
20445;SDS011;10382;49.140;9.234;2023-02-26T04:08:45;9.77;;;4.32;;
20445;SDS011;10382;49.140;9.234;2023-02-26T04:11:14;4.93;;;3.75;;
20445;SDS011;10382;49.140;9.234;2023-02-26T04:13:43;9.18;;;5.03;;
20445;SDS011;10382;49.140;9.234;2023-02-26T04:16:11;5.43;;;3.85;;
20445;SDS011;10382;49.140;9.234;2023-02-26T04:18:37;6.45;;;4.07;;
20445;SDS011;10382;49.140;9.234;2023-02-26T04:21:06;7.25;;;5.55;;
20445;SDS011;10382;49.140;9.234;2023-02-26T04:23:37;4.20;;;3.63;;
20445;SDS011;10382;49.140;9.234;2023-02-26T04:26:04;8.57;;;3.85;;
20445;SDS011;10382;49.140;9.234;2023-02-26T04:28:30;5.65;;;5.10;;
20445;SDS011;10382;49.140;9.234;2023-02-26T04:30:58;9.38;;;3.72;;
20445;SDS011;10382;49.140;9.234;2023-02-26T04:33:25;9.13;;;4.10;;
20445;SDS011;10382;49.140;9.234;2023-02-26T04:38:21;6.40;;;2.55;;
20445;SDS011;10382;49.140;9.234;2023-02-26T04:40:48;6.07;;;3.25;;
20445;SDS011;10382;49.140;9.234;2023-02-26T04:43:15;3.05;;;2.53;;
20445;SDS011;10382;49.140;9.234;2023-02-26T04:45:43;16.33;;;4.03;;
20445;SDS011;10382;49.140;9.234;2023-02-26T04:48:11;7.45;;;2.85;;
20445;SDS011;10382;49.140;9.234;2023-02-26T04:50:38;6.38;;;2.58;;
20445;SDS011;10382;49.140;9.234;2023-02-26T04:53:04;8.60;;;3.55;;
20445;SDS011;10382;49.140;9.234;2023-02-26T04:55:33;10.18;;;4.85;;
20445;SDS011;10382;49.140;9.234;2023-02-26T04:58:01;8.38;;;5.05;;
20445;SDS011;10382;49.140;9.234;2023-02-26T05:00:28;12.20;;;6.78;;
20445;SDS011;10382;49.140;9.234;2023-02-26T05:02:55;12.68;;;5.85;;
20445;SDS011;10382;49.140;9.234;2023-02-26T05:05:22;3.72;;;2.70;;
20445;SDS011;10382;49.140;9.234;2023-02-26T05:07:49;11.77;;;6.03;;
20445;SDS011;10382;49.140;9.234;2023-02-26T05:10:17;12.63;;;5.90;;
20445;SDS011;10382;49.140;9.234;2023-02-26T05:12:46;18.00;;;6.43;;
20445;SDS011;10382;49.140;9.234;2023-02-26T05:15:13;4.53;;;2.78;;
20445;SDS011;10382;49.140;9.234;2023-02-26T05:17:39;14.48;;;7.32;;
20445;SDS011;10382;49.140;9.234;2023-02-26T05:20:07;20.02;;;8.98;;
20445;SDS011;10382;49.140;9.234;2023-02-26T05:22:35;13.43;;;5.97;;
20445;SDS011;10382;49.140;9.234;2023-02-26T05:25:02;15.50;;;6.60;;
20445;SDS011;10382;49.140;9.234;2023-02-26T05:27:30;19.65;;;8.23;;
20445;SDS011;10382;49.140;9.234;2023-02-26T05:29:58;12.45;;;4.53;;
20445;SDS011;10382;49.140;9.234;2023-02-26T05:32:25;11.75;;;5.53;;
20445;SDS011;10382;49.140;9.234;2023-02-26T05:34:52;10.48;;;5.43;;
20445;SDS011;10382;49.140;9.234;2023-02-26T05:37:19;16.02;;;6.70;;
20445;SDS011;10382;49.140;9.234;2023-02-26T05:39:46;15.63;;;6.05;;
20445;SDS011;10382;49.140;9.234;2023-02-26T05:42:13;9.57;;;5.28;;
20445;SDS011;10382;49.140;9.234;2023-02-26T05:44:40;12.75;;;5.72;;
20445;SDS011;10382;49.140;9.234;2023-02-26T05:47:08;11.75;;;5.45;;
20445;SDS011;10382;49.140;9.234;2023-02-26T05:49:35;13.50;;;7.10;;
20445;SDS011;10382;49.140;9.234;2023-02-26T05:52:02;11.15;;;5.45;;
20445;SDS011;10382;49.140;9.234;2023-02-26T05:54:29;9.73;;;5.25;;
20445;SDS011;10382;49.140;9.234;2023-02-26T05:56:56;11.15;;;6.40;;
20445;SDS011;10382;49.140;9.234;2023-02-26T05:59:23;11.20;;;6.03;;
20445;SDS011;10382;49.140;9.234;2023-02-26T06:01:49;11.35;;;5.47;;
20445;SDS011;10382;49.140;9.234;2023-02-26T06:04:18;12.57;;;5.15;;
20445;SDS011;10382;49.140;9.234;2023-02-26T06:06:45;10.35;;;5.35;;
20445;SDS011;10382;49.140;9.234;2023-02-26T06:09:12;8.57;;;4.85;;
20445;SDS011;10382;49.140;9.234;2023-02-26T06:11:38;13.93;;;5.43;;
20445;SDS011;10382;49.140;9.234;2023-02-26T06:14:05;6.80;;;3.38;;
20445;SDS011;10382;49.140;9.234;2023-02-26T06:16:32;9.88;;;5.57;;
20445;SDS011;10382;49.140;9.234;2023-02-26T06:19:00;15.00;;;5.95;;
20445;SDS011;10382;49.140;9.234;2023-02-26T06:21:28;14.23;;;5.90;;
20445;SDS011;10382;49.140;9.234;2023-02-26T06:23:55;17.58;;;6.18;;
20445;SDS011;10382;49.140;9.234;2023-02-26T06:26:22;12.65;;;6.60;;
20445;SDS011;10382;49.140;9.234;2023-02-26T06:28:49;13.38;;;7.05;;
20445;SDS011;10382;49.140;9.234;2023-02-26T06:31:16;14.20;;;6.40;;
20445;SDS011;10382;49.140;9.234;2023-02-26T06:33:43;13.38;;;6.18;;
20445;SDS011;10382;49.140;9.234;2023-02-26T06:36:10;13.18;;;5.97;;
20445;SDS011;10382;49.140;9.234;2023-02-26T06:38:38;15.35;;;6.68;;
20445;SDS011;10382;49.140;9.234;2023-02-26T06:41:07;13.73;;;6.65;;
20445;SDS011;10382;49.140;9.234;2023-02-26T06:43:33;14.05;;;5.15;;
20445;SDS011;10382;49.140;9.234;2023-02-26T06:46:00;14.02;;;5.85;;
20445;SDS011;10382;49.140;9.234;2023-02-26T06:48:27;12.38;;;4.85;;
20445;SDS011;10382;49.140;9.234;2023-02-26T06:50:54;13.50;;;6.93;;
20445;SDS011;10382;49.140;9.234;2023-02-26T06:53:21;15.38;;;5.20;;
20445;SDS011;10382;49.140;9.234;2023-02-26T06:55:50;8.70;;;4.65;;
20445;SDS011;10382;49.140;9.234;2023-02-26T06:58:17;15.70;;;7.53;;
20445;SDS011;10382;49.140;9.234;2023-02-26T07:00:45;16.98;;;6.10;;
20445;SDS011;10382;49.140;9.234;2023-02-26T07:03:12;12.13;;;6.68;;
20445;SDS011;10382;49.140;9.234;2023-02-26T07:05:40;13.43;;;5.30;;
20445;SDS011;10382;49.140;9.234;2023-02-26T07:08:07;15.25;;;4.60;;
20445;SDS011;10382;49.140;9.234;2023-02-26T07:10:35;14.95;;;6.10;;
20445;SDS011;10382;49.140;9.234;2023-02-26T07:13:03;11.35;;;6.18;;
20445;SDS011;10382;49.140;9.234;2023-02-26T07:15:30;9.18;;;4.85;;
20445;SDS011;10382;49.140;9.234;2023-02-26T07:17:57;18.38;;;5.35;;
20445;SDS011;10382;49.140;9.234;2023-02-26T07:20:25;17.48;;;6.30;;
20445;SDS011;10382;49.140;9.234;2023-02-26T07:22:51;17.45;;;6.53;;
20445;SDS011;10382;49.140;9.234;2023-02-26T07:25:18;15.10;;;6.18;;
20445;SDS011;10382;49.140;9.234;2023-02-26T07:27:45;13.00;;;6.50;;
20445;SDS011;10382;49.140;9.234;2023-02-26T07:30:14;13.52;;;7.15;;
20445;SDS011;10382;49.140;9.234;2023-02-26T07:32:41;19.48;;;7.60;;
20445;SDS011;10382;49.140;9.234;2023-02-26T07:35:08;15.02;;;6.57;;
20445;SDS011;10382;49.140;9.234;2023-02-26T07:37:36;18.85;;;5.72;;
20445;SDS011;10382;49.140;9.234;2023-02-26T07:40:03;7.93;;;3.20;;
20445;SDS011;10382;49.140;9.234;2023-02-26T07:42:30;14.35;;;6.80;;
20445;SDS011;10382;49.140;9.234;2023-02-26T07:44:57;14.70;;;6.75;;
20445;SDS011;10382;49.140;9.234;2023-02-26T07:47:26;15.27;;;6.22;;
20445;SDS011;10382;49.140;9.234;2023-02-26T07:49:54;10.70;;;5.82;;
20445;SDS011;10382;49.140;9.234;2023-02-26T07:52:21;14.45;;;7.45;;
20445;SDS011;10382;49.140;9.234;2023-02-26T07:54:48;9.43;;;5.13;;
20445;SDS011;10382;49.140;9.234;2023-02-26T07:57:15;10.93;;;4.88;;
20445;SDS011;10382;49.140;9.234;2023-02-26T07:59:42;11.77;;;6.45;;
20445;SDS011;10382;49.140;9.234;2023-02-26T08:02:09;12.15;;;3.70;;
20445;SDS011;10382;49.140;9.234;2023-02-26T08:04:37;17.25;;;3.85;;
20445;SDS011;10382;49.140;9.234;2023-02-26T08:07:05;21.08;;;7.45;;
20445;SDS011;10382;49.140;9.234;2023-02-26T08:09:32;24.40;;;8.25;;
20445;SDS011;10382;49.140;9.234;2023-02-26T08:11:58;30.27;;;8.18;;
20445;SDS011;10382;49.140;9.234;2023-02-26T08:14:25;22.05;;;8.15;;
20445;SDS011;10382;49.140;9.234;2023-02-26T08:16:52;31.60;;;11.55;;
20445;SDS011;10382;49.140;9.234;2023-02-26T08:19:19;25.63;;;8.65;;
20445;SDS011;10382;49.140;9.234;2023-02-26T08:21:47;19.02;;;5.50;;
20445;SDS011;10382;49.140;9.234;2023-02-26T08:24:14;31.58;;;8.25;;
20445;SDS011;10382;49.140;9.234;2023-02-26T08:26:41;24.48;;;7.55;;
20445;SDS011;10382;49.140;9.234;2023-02-26T08:29:08;24.88;;;8.68;;
20445;SDS011;10382;49.140;9.234;2023-02-26T08:31:34;21.60;;;6.53;;
20445;SDS011;10382;49.140;9.234;2023-02-26T08:34:01;18.95;;;7.03;;
20445;SDS011;10382;49.140;9.234;2023-02-26T08:36:28;16.63;;;5.80;;
20445;SDS011;10382;49.140;9.234;2023-02-26T08:38:57;21.30;;;7.78;;
20445;SDS011;10382;49.140;9.234;2023-02-26T08:41:24;21.38;;;6.75;;
20445;SDS011;10382;49.140;9.234;2023-02-26T08:43:54;29.45;;;8.88;;
20445;SDS011;10382;49.140;9.234;2023-02-26T08:46:21;21.98;;;7.10;;
20445;SDS011;10382;49.140;9.234;2023-02-26T08:48:48;29.45;;;7.72;;
20445;SDS011;10382;49.140;9.234;2023-02-26T08:51:14;28.85;;;9.10;;
20445;SDS011;10382;49.140;9.234;2023-02-26T08:53:42;33.42;;;7.28;;
20445;SDS011;10382;49.140;9.234;2023-02-26T08:56:12;23.88;;;7.43;;
20445;SDS011;10382;49.140;9.234;2023-02-26T08:58:39;19.88;;;5.80;;
20445;SDS011;10382;49.140;9.234;2023-02-26T09:01:06;12.45;;;4.82;;
20445;SDS011;10382;49.140;9.234;2023-02-26T09:03:33;13.57;;;5.35;;
20445;SDS011;10382;49.140;9.234;2023-02-26T09:06:00;18.15;;;5.47;;
20445;SDS011;10382;49.140;9.234;2023-02-26T09:08:28;28.00;;;8.75;;
20445;SDS011;10382;49.140;9.234;2023-02-26T09:10:58;17.38;;;5.30;;
20445;SDS011;10382;49.140;9.234;2023-02-26T09:13:27;22.42;;;7.82;;
20445;SDS011;10382;49.140;9.234;2023-02-26T09:15:54;13.95;;;5.28;;
20445;SDS011;10382;49.140;9.234;2023-02-26T09:18:21;20.48;;;6.50;;
20445;SDS011;10382;49.140;9.234;2023-02-26T09:20:48;27.25;;;7.88;;
20445;SDS011;10382;49.140;9.234;2023-02-26T09:23:15;19.13;;;6.10;;
20445;SDS011;10382;49.140;9.234;2023-02-26T09:25:42;21.83;;;7.30;;
20445;SDS011;10382;49.140;9.234;2023-02-26T09:28:08;21.00;;;6.78;;
20445;SDS011;10382;49.140;9.234;2023-02-26T09:30:37;23.23;;;6.60;;
20445;SDS011;10382;49.140;9.234;2023-02-26T09:33:03;32.10;;;9.60;;
20445;SDS011;10382;49.140;9.234;2023-02-26T09:35:30;18.42;;;5.75;;
20445;SDS011;10382;49.140;9.234;2023-02-26T09:37:57;17.45;;;5.85;;
20445;SDS011;10382;49.140;9.234;2023-02-26T09:40:37;25.10;;;8.23;;
20445;SDS011;10382;49.140;9.234;2023-02-26T09:43:14;26.35;;;8.20;;
20445;SDS011;10382;49.140;9.234;2023-02-26T09:45:58;14.88;;;4.68;;
20445;SDS011;10382;49.140;9.234;2023-02-26T09:48:28;25.30;;;8.32;;
20445;SDS011;10382;49.140;9.234;2023-02-26T09:50:57;17.42;;;5.65;;
20445;SDS011;10382;49.140;9.234;2023-02-26T09:53:25;23.08;;;6.45;;
20445;SDS011;10382;49.140;9.234;2023-02-26T09:55:57;22.80;;;7.68;;
20445;SDS011;10382;49.140;9.234;2023-02-26T09:58:28;79.75;;;31.48;;
20445;SDS011;10382;49.140;9.234;2023-02-26T10:00:59;35.13;;;14.35;;
20445;SDS011;10382;49.140;9.234;2023-02-26T10:03:35;35.55;;;15.10;;
20445;SDS011;10382;49.140;9.234;2023-02-26T10:06:17;25.73;;;9.90;;
20445;SDS011;10382;49.140;9.234;2023-02-26T10:08:51;30.42;;;9.52;;
20445;SDS011;10382;49.140;9.234;2023-02-26T10:11:28;25.85;;;8.13;;
20445;SDS011;10382;49.140;9.234;2023-02-26T10:14:01;17.83;;;5.85;;
20445;SDS011;10382;49.140;9.234;2023-02-26T10:16:34;26.98;;;8.85;;
20445;SDS011;10382;49.140;9.234;2023-02-26T10:19:05;15.48;;;5.30;;
20445;SDS011;10382;49.140;9.234;2023-02-26T10:21:37;31.60;;;10.77;;
20445;SDS011;10382;49.140;9.234;2023-02-26T10:24:10;17.52;;;5.78;;
20445;SDS011;10382;49.140;9.234;2023-02-26T10:26:42;20.95;;;6.47;;
20445;SDS011;10382;49.140;9.234;2023-02-26T10:29:14;31.35;;;8.68;;
20445;SDS011;10382;49.140;9.234;2023-02-26T10:31:51;39.92;;;12.18;;
20445;SDS011;10382;49.140;9.234;2023-02-26T10:34:28;31.48;;;9.45;;
20445;SDS011;10382;49.140;9.234;2023-02-26T10:37:02;22.35;;;7.30;;
20445;SDS011;10382;49.140;9.234;2023-02-26T10:39:41;20.05;;;6.95;;
20445;SDS011;10382;49.140;9.234;2023-02-26T10:42:14;19.30;;;6.75;;
20445;SDS011;10382;49.140;9.234;2023-02-26T10:44:45;21.42;;;7.90;;
20445;SDS011;10382;49.140;9.234;2023-02-26T10:47:21;33.05;;;9.07;;
20445;SDS011;10382;49.140;9.234;2023-02-26T10:49:58;19.67;;;7.22;;
20445;SDS011;10382;49.140;9.234;2023-02-26T10:52:29;22.35;;;7.13;;
20445;SDS011;10382;49.140;9.234;2023-02-26T10:55:14;27.85;;;9.68;;
20445;SDS011;10382;49.140;9.234;2023-02-26T10:57:54;25.25;;;9.68;;
20445;SDS011;10382;49.140;9.234;2023-02-26T11:00:31;34.95;;;11.32;;
20445;SDS011;10382;49.140;9.234;2023-02-26T11:03:02;46.10;;;16.27;;
20445;SDS011;10382;49.140;9.234;2023-02-26T11:05:31;28.25;;;8.98;;
20445;SDS011;10382;49.140;9.234;2023-02-26T11:08:00;28.15;;;8.48;;
20445;SDS011;10382;49.140;9.234;2023-02-26T11:10:39;32.28;;;8.07;;
20445;SDS011;10382;49.140;9.234;2023-02-26T11:13:10;29.65;;;9.02;;
20445;SDS011;10382;49.140;9.234;2023-02-26T11:15:37;17.60;;;5.85;;
20445;SDS011;10382;49.140;9.234;2023-02-26T11:18:07;26.20;;;9.02;;
20445;SDS011;10382;49.140;9.234;2023-02-26T11:20:41;26.15;;;8.80;;
20445;SDS011;10382;49.140;9.234;2023-02-26T11:23:11;21.92;;;7.45;;
20445;SDS011;10382;49.140;9.234;2023-02-26T11:25:39;17.40;;;6.30;;
20445;SDS011;10382;49.140;9.234;2023-02-26T11:28:09;23.05;;;8.02;;
20445;SDS011;10382;49.140;9.234;2023-02-26T11:30:46;25.98;;;8.27;;
20445;SDS011;10382;49.140;9.234;2023-02-26T11:33:18;29.25;;;8.75;;
20445;SDS011;10382;49.140;9.234;2023-02-26T11:35:48;24.85;;;8.05;;
20445;SDS011;10382;49.140;9.234;2023-02-26T11:38:17;26.60;;;7.97;;
20445;SDS011;10382;49.140;9.234;2023-02-26T11:40:47;20.20;;;6.20;;
20445;SDS011;10382;49.140;9.234;2023-02-26T11:43:18;25.75;;;8.05;;
20445;SDS011;10382;49.140;9.234;2023-02-26T11:45:48;25.92;;;7.38;;
20445;SDS011;10382;49.140;9.234;2023-02-26T11:48:20;16.92;;;5.88;;
20445;SDS011;10382;49.140;9.234;2023-02-26T11:50:51;29.33;;;9.52;;
20445;SDS011;10382;49.140;9.234;2023-02-26T11:53:23;23.42;;;7.68;;
20445;SDS011;10382;49.140;9.234;2023-02-26T11:55:52;38.20;;;11.80;;
20445;SDS011;10382;49.140;9.234;2023-02-26T11:58:27;22.50;;;7.30;;
20445;SDS011;10382;49.140;9.234;2023-02-26T12:00:57;25.15;;;8.18;;
20445;SDS011;10382;49.140;9.234;2023-02-26T12:03:28;23.25;;;7.60;;
20445;SDS011;10382;49.140;9.234;2023-02-26T12:05:58;17.33;;;5.70;;
20445;SDS011;10382;49.140;9.234;2023-02-26T12:08:28;25.52;;;8.25;;
20445;SDS011;10382;49.140;9.234;2023-02-26T12:11:12;12.07;;;3.20;;
20445;SDS011;10382;49.140;9.234;2023-02-26T12:14:00;27.10;;;8.50;;
20445;SDS011;10382;49.140;9.234;2023-02-26T12:16:38;17.90;;;5.95;;
20445;SDS011;10382;49.140;9.234;2023-02-26T12:19:17;27.52;;;8.05;;
20445;SDS011;10382;49.140;9.234;2023-02-26T12:21:57;25.00;;;7.75;;
20445;SDS011;10382;49.140;9.234;2023-02-26T12:24:42;25.83;;;8.10;;
20445;SDS011;10382;49.140;9.234;2023-02-26T12:27:45;23.30;;;7.80;;
20445;SDS011;10382;49.140;9.234;2023-02-26T12:30:34;27.27;;;8.63;;
20445;SDS011;10382;49.140;9.234;2023-02-26T12:33:13;35.60;;;11.20;;
20445;SDS011;10382;49.140;9.234;2023-02-26T12:36:02;24.83;;;7.70;;
20445;SDS011;10382;49.140;9.234;2023-02-26T12:38:43;17.60;;;5.47;;
20445;SDS011;10382;49.140;9.234;2023-02-26T12:41:23;25.43;;;6.60;;
20445;SDS011;10382;49.140;9.234;2023-02-26T12:44:16;27.27;;;7.63;;
20445;SDS011;10382;49.140;9.234;2023-02-26T12:46:57;27.13;;;7.90;;
20445;SDS011;10382;49.140;9.234;2023-02-26T12:49:46;25.57;;;7.17;;
20445;SDS011;10382;49.140;9.234;2023-02-26T12:52:40;25.97;;;7.20;;
20445;SDS011;10382;49.140;9.234;2023-02-26T12:55:40;25.93;;;8.37;;
20445;SDS011;10382;49.140;9.234;2023-02-26T12:58:24;26.60;;;8.20;;
20445;SDS011;10382;49.140;9.234;2023-02-26T13:04:14;26.27;;;6.97;;
20445;SDS011;10382;49.140;9.234;2023-02-26T13:07:10;25.00;;;7.00;;
20445;SDS011;10382;49.140;9.234;2023-02-26T13:09:57;21.47;;;6.27;;
20445;SDS011;10382;49.140;9.234;2023-02-26T13:12:32;22.17;;;6.73;;
20445;SDS011;10382;49.140;9.234;2023-02-26T13:15:14;30.77;;;8.63;;
20445;SDS011;10382;49.140;9.234;2023-02-26T13:17:53;28.90;;;8.43;;
20445;SDS011;10382;49.140;9.234;2023-02-26T13:20:27;25.73;;;8.70;;
20445;SDS011;10382;49.140;9.234;2023-02-26T13:22:55;41.40;;;13.37;;
20445;SDS011;10382;49.140;9.234;2023-02-26T13:25:29;21.03;;;6.90;;
20445;SDS011;10382;49.140;9.234;2023-02-26T13:28:01;18.40;;;5.70;;
20445;SDS011;10382;49.140;9.234;2023-02-26T13:30:33;29.90;;;10.00;;
20445;SDS011;10382;49.140;9.234;2023-02-26T13:33:06;37.73;;;12.13;;
20445;SDS011;10382;49.140;9.234;2023-02-26T13:35:43;20.03;;;6.23;;
20445;SDS011;10382;49.140;9.234;2023-02-26T13:38:13;28.67;;;9.10;;
20445;SDS011;10382;49.140;9.234;2023-02-26T13:40:49;18.53;;;6.27;;
20445;SDS011;10382;49.140;9.234;2023-02-26T13:43:33;18.40;;;5.93;;
20445;SDS011;10382;49.140;9.234;2023-02-26T13:46:35;20.87;;;6.70;;
20445;SDS011;10382;49.140;9.234;2023-02-26T13:49:15;34.67;;;10.63;;
20445;SDS011;10382;49.140;9.234;2023-02-26T13:51:45;34.43;;;10.43;;
20445;SDS011;10382;49.140;9.234;2023-02-26T13:54:28;34.60;;;11.27;;
20445;SDS011;10382;49.140;9.234;2023-02-26T13:57:09;25.10;;;7.80;;
20445;SDS011;10382;49.140;9.234;2023-02-26T13:59:53;25.90;;;8.17;;
20445;SDS011;10382;49.140;9.234;2023-02-26T14:02:29;25.20;;;8.27;;
20445;SDS011;10382;49.140;9.234;2023-02-26T14:05:05;18.25;;;6.05;;
20445;SDS011;10382;49.140;9.234;2023-02-26T14:07:44;17.15;;;5.43;;
20445;SDS011;10382;49.140;9.234;2023-02-26T14:10:14;29.80;;;9.27;;
20445;SDS011;10382;49.140;9.234;2023-02-26T14:13:02;31.73;;;9.73;;
20445;SDS011;10382;49.140;9.234;2023-02-26T14:15:39;20.90;;;6.57;;
20445;SDS011;10382;49.140;9.234;2023-02-26T14:18:18;21.30;;;7.05;;
20445;SDS011;10382;49.140;9.234;2023-02-26T14:20:50;10.80;;;3.90;;
20445;SDS011;10382;49.140;9.234;2023-02-26T14:23:30;24.83;;;7.68;;
20445;SDS011;10382;49.140;9.234;2023-02-26T14:26:02;27.25;;;8.07;;
20445;SDS011;10382;49.140;9.234;2023-02-26T14:31:45;29.95;;;7.95;;
20445;SDS011;10382;49.140;9.234;2023-02-26T14:34:20;25.87;;;7.20;;
20445;SDS011;10382;49.140;9.234;2023-02-26T14:36:50;34.10;;;9.87;;
20445;SDS011;10382;49.140;9.234;2023-02-26T14:39:23;22.47;;;7.00;;
20445;SDS011;10382;49.140;9.234;2023-02-26T14:41:54;38.93;;;11.33;;
20445;SDS011;10382;49.140;9.234;2023-02-26T14:44:26;26.67;;;7.23;;
20445;SDS011;10382;49.140;9.234;2023-02-26T14:46:55;27.00;;;8.17;;
20445;SDS011;10382;49.140;9.234;2023-02-26T14:49:25;13.57;;;4.30;;
20445;SDS011;10382;49.140;9.234;2023-02-26T14:52:08;24.93;;;7.90;;
20445;SDS011;10382;49.140;9.234;2023-02-26T14:54:59;30.53;;;9.13;;
20445;SDS011;10382;49.140;9.234;2023-02-26T14:57:38;23.40;;;7.40;;
20445;SDS011;10382;49.140;9.234;2023-02-26T15:00:15;27.10;;;9.67;;
20445;SDS011;10382;49.140;9.234;2023-02-26T15:02:59;12.93;;;4.63;;
20445;SDS011;10382;49.140;9.234;2023-02-26T15:05:50;27.93;;;8.43;;
20445;SDS011;10382;49.140;9.234;2023-02-26T15:08:38;19.67;;;5.37;;
20445;SDS011;10382;49.140;9.234;2023-02-26T15:11:23;17.47;;;5.57;;
20445;SDS011;10382;49.140;9.234;2023-02-26T15:14:12;19.00;;;6.40;;
20445;SDS011;10382;49.140;9.234;2023-02-26T15:17:01;27.48;;;8.70;;
20445;SDS011;10382;49.140;9.234;2023-02-26T15:19:39;25.75;;;7.75;;